createdAt,value
2018-07-24T00:01:28.861Z,19.80
2018-07-24T00:03:57.168Z,19.00
2018-07-24T00:06:25.760Z,18.80
2018-07-24T00:08:54.091Z,19.07
2018-07-24T00:11:22.379Z,23.43
2018-07-24T00:13:50.664Z,21.70
2018-07-24T00:16:19.411Z,19.97
2018-07-24T00:18:47.700Z,22.87
2018-07-24T00:21:16.005Z,21.47
2018-07-24T00:23:44.285Z,21.83
2018-07-24T00:26:12.557Z,19.07
2018-07-24T00:28:40.819Z,19.23
2018-07-24T00:31:09.334Z,19.70
2018-07-24T00:33:38.600Z,18.30
2018-07-24T00:36:06.876Z,19.80
2018-07-24T00:38:35.140Z,19.03
2018-07-24T00:41:03.398Z,18.13
2018-07-24T00:43:31.657Z,19.17
2018-07-24T00:45:59.979Z,18.57
2018-07-24T00:48:28.312Z,18.53
2018-07-24T00:50:56.795Z,17.53
2018-07-24T00:53:25.054Z,17.87
2018-07-24T00:55:53.307Z,18.37
2018-07-24T00:58:21.595Z,18.30
2018-07-24T01:00:49.849Z,17.93
2018-07-24T01:03:18.202Z,17.60
2018-07-24T01:05:46.449Z,17.93
2018-07-24T01:08:14.707Z,20.00
2018-07-24T01:10:43.016Z,18.63
2018-07-24T01:13:11.328Z,18.57
2018-07-24T01:15:39.612Z,17.97
2018-07-24T01:18:07.928Z,17.57
2018-07-24T01:20:36.205Z,17.90
2018-07-24T01:23:04.459Z,19.37
2018-07-24T01:25:32.716Z,18.47
2018-07-24T01:28:00.949Z,18.47
2018-07-24T01:30:29.280Z,18.47
2018-07-24T01:32:57.522Z,20.10
2018-07-24T01:35:25.796Z,19.17
2018-07-24T01:37:54.074Z,18.23
2018-07-24T01:40:22.348Z,18.00
2018-07-24T01:42:50.617Z,19.20
2018-07-24T01:45:18.905Z,19.03
2018-07-24T01:47:47.187Z,18.50
2018-07-24T01:50:15.510Z,19.30
2018-07-24T01:52:43.920Z,19.97
2018-07-24T01:55:12.184Z,19.90
2018-07-24T01:57:40.451Z,19.37
2018-07-24T02:00:13.185Z,20.93
2018-07-24T02:02:41.485Z,20.60
2018-07-24T02:05:09.774Z,21.33
2018-07-24T02:07:38.035Z,19.63
2018-07-24T02:10:06.701Z,19.37
2018-07-24T02:12:34.973Z,19.80
2018-07-24T02:15:03.307Z,19.70
2018-07-24T02:17:31.593Z,18.67
2018-07-24T02:19:59.889Z,19.83
2018-07-24T02:22:28.151Z,18.50
2018-07-24T02:24:56.473Z,19.53
2018-07-24T02:27:24.756Z,19.67
2018-07-24T02:29:53.032Z,20.37
2018-07-24T02:32:21.286Z,21.33
2018-07-24T02:34:49.566Z,22.37
2018-07-24T02:37:17.843Z,22.37
2018-07-24T02:39:46.147Z,21.33
2018-07-24T02:42:14.407Z,22.50
2018-07-24T02:44:42.688Z,20.70
2018-07-24T02:47:10.933Z,21.40
2018-07-24T02:49:39.189Z,21.50
2018-07-24T02:52:07.491Z,21.20
2018-07-24T02:54:35.732Z,22.93
2018-07-24T02:57:04.011Z,22.23
2018-07-24T03:02:07.392Z,18.77
2018-07-24T03:04:35.805Z,21.97
2018-07-24T03:07:04.200Z,20.43
2018-07-24T03:09:32.456Z,22.70
2018-07-24T03:12:00.705Z,23.00
2018-07-24T03:14:28.979Z,23.87
2018-07-24T03:16:57.256Z,22.63
2018-07-24T03:19:25.552Z,22.27
2018-07-24T03:21:53.855Z,21.03
2018-07-24T03:24:22.112Z,20.90
2018-07-24T03:26:50.353Z,20.43
2018-07-24T03:29:18.663Z,18.90
2018-07-24T03:31:47.182Z,19.90
2018-07-24T03:34:15.442Z,20.50
2018-07-24T03:36:43.695Z,23.87
2018-07-24T03:39:13.047Z,21.70
2018-07-24T03:41:41.762Z,21.53
2018-07-24T03:44:10.196Z,21.47
2018-07-24T03:46:38.453Z,20.97
2018-07-24T03:49:06.740Z,23.27
2018-07-24T03:51:35.824Z,20.70
2018-07-24T03:54:04.290Z,23.37
2018-07-24T03:56:32.583Z,22.60
2018-07-24T03:59:00.835Z,21.37
2018-07-24T04:01:29.130Z,21.40
2018-07-24T04:03:57.396Z,22.17
2018-07-24T04:06:25.681Z,24.53
2018-07-24T04:08:53.939Z,23.47
2018-07-24T04:11:22.218Z,25.43
2018-07-24T04:13:50.504Z,24.20
2018-07-24T04:16:18.944Z,22.67
2018-07-24T04:18:48.229Z,27.33
2018-07-24T04:21:17.603Z,23.77
2018-07-24T04:23:46.400Z,28.70
2018-07-24T04:26:14.685Z,26.70
2018-07-24T04:28:44.085Z,25.97
2018-07-24T04:31:13.071Z,27.13
2018-07-24T04:33:42.003Z,26.27
2018-07-24T04:36:10.291Z,26.43
2018-07-24T04:38:38.567Z,26.53
2018-07-24T04:41:06.994Z,27.80
2018-07-24T04:43:35.304Z,26.47
2018-07-24T04:46:03.614Z,26.23
2018-07-24T04:48:32.219Z,27.60
2018-07-24T04:51:00.577Z,25.13
2018-07-24T04:53:28.868Z,32.67
2018-07-24T04:55:57.192Z,25.60
2018-07-24T04:58:25.494Z,23.87
2018-07-24T05:00:54.220Z,24.77
2018-07-24T05:03:22.566Z,25.27
2018-07-24T05:05:50.836Z,27.77
2018-07-24T05:08:19.292Z,25.40
2018-07-24T05:10:47.594Z,24.73
2018-07-24T05:13:16.015Z,27.67
2018-07-24T05:15:44.316Z,24.67
2018-07-24T05:18:12.661Z,24.43
2018-07-24T05:20:40.959Z,25.67
2018-07-24T05:23:09.263Z,23.20
2018-07-24T05:25:37.566Z,24.73
2018-07-24T05:28:05.909Z,23.07
2018-07-24T05:30:34.215Z,21.63
2018-07-24T05:33:02.565Z,31.10
2018-07-24T05:35:30.848Z,23.20
2018-07-24T05:37:59.134Z,18.37
2018-07-24T05:40:27.476Z,19.67
2018-07-24T05:42:55.897Z,23.93
2018-07-24T05:45:24.187Z,36.50
2018-07-24T05:47:52.503Z,23.00
2018-07-24T05:50:20.802Z,17.77
2018-07-24T05:52:49.116Z,19.10
2018-07-24T05:55:17.523Z,21.30
2018-07-24T05:57:45.996Z,20.47
2018-07-24T06:00:14.302Z,22.40
2018-07-24T06:02:42.601Z,16.93
2018-07-24T06:05:10.914Z,16.30
2018-07-24T06:07:39.232Z,18.57
2018-07-24T06:10:07.540Z,20.73
2018-07-24T06:12:35.814Z,18.53
2018-07-24T06:15:04.680Z,17.73
2018-07-24T06:17:32.971Z,28.20
2018-07-24T06:20:01.257Z,18.63
2018-07-24T06:22:29.541Z,18.23
2018-07-24T06:24:57.870Z,20.30
2018-07-24T06:27:26.231Z,17.50
2018-07-24T06:29:54.527Z,20.37
2018-07-24T06:32:22.804Z,24.90
2018-07-24T06:34:51.108Z,20.20
2018-07-24T06:37:19.433Z,19.00
2018-07-24T06:39:47.725Z,17.13
2018-07-24T06:42:16.029Z,17.47
2018-07-24T06:44:44.260Z,19.37
2018-07-24T06:47:12.593Z,28.43
2018-07-24T06:49:40.856Z,20.37
2018-07-24T06:52:09.081Z,19.47
2018-07-24T06:54:37.308Z,19.63
2018-07-24T06:57:05.556Z,19.33
2018-07-24T06:59:33.819Z,25.10
2018-07-24T07:02:02.268Z,19.43
2018-07-24T07:04:30.471Z,20.67
2018-07-24T07:06:58.725Z,23.37
2018-07-24T07:09:27.013Z,26.40
2018-07-24T07:11:55.288Z,27.40
2018-07-24T07:14:23.581Z,25.37
2018-07-24T07:16:51.912Z,23.03
2018-07-24T07:19:20.784Z,23.13
2018-07-24T07:21:49.097Z,19.37
2018-07-24T07:24:17.332Z,24.03
2018-07-24T07:26:45.604Z,41.40
2018-07-24T07:29:13.860Z,30.80
2018-07-24T07:31:42.120Z,21.60
2018-07-24T07:34:10.429Z,20.93
2018-07-24T07:36:38.695Z,19.93
2018-07-24T07:39:07.719Z,18.33
2018-07-24T07:41:36.027Z,18.07
2018-07-24T07:44:04.336Z,21.37
2018-07-24T07:46:32.552Z,40.40
2018-07-24T07:49:01.080Z,24.10
2018-07-24T07:51:29.568Z,19.03
2018-07-24T07:53:57.820Z,24.20
2018-07-24T07:56:26.056Z,18.07
2018-07-24T07:58:54.322Z,20.30
2018-07-24T08:01:22.570Z,18.13
2018-07-24T08:03:50.951Z,20.93
2018-07-24T08:06:19.251Z,18.03
2018-07-24T08:08:47.494Z,16.87
2018-07-24T08:11:16.329Z,16.70
2018-07-24T08:13:44.616Z,16.17
2018-07-24T08:16:12.865Z,19.70
2018-07-24T08:18:41.133Z,20.87
2018-07-24T08:21:09.444Z,16.60
2018-07-24T08:23:37.739Z,16.77
2018-07-24T08:26:06.187Z,16.07
2018-07-24T08:28:34.448Z,17.17
2018-07-24T08:31:02.677Z,52.50
2018-07-24T08:33:30.974Z,19.37
2018-07-24T08:35:59.265Z,20.17
2018-07-24T08:38:27.589Z,16.27
2018-07-24T08:40:55.861Z,15.83
2018-07-24T08:43:24.151Z,14.77
2018-07-24T08:45:52.422Z,24.37
2018-07-24T08:48:20.779Z,16.80
2018-07-24T08:50:49.049Z,14.23
2018-07-24T08:53:17.572Z,15.87
2018-07-24T08:55:46.060Z,16.90
2018-07-24T08:58:14.244Z,16.60
2018-07-24T09:00:42.499Z,16.53
2018-07-24T09:03:10.843Z,26.57
2018-07-24T09:05:39.136Z,24.33
2018-07-24T09:08:07.475Z,14.17
2018-07-24T09:10:35.722Z,31.83
2018-07-24T09:13:03.970Z,33.37
2018-07-24T09:15:32.272Z,13.90
2018-07-24T09:18:00.793Z,14.93
2018-07-24T09:20:29.036Z,21.20
2018-07-24T09:22:57.308Z,21.33
2018-07-24T09:25:25.568Z,66.77
2018-07-24T09:27:53.813Z,37.87
2018-07-24T09:30:22.093Z,29.83
2018-07-24T09:32:50.333Z,14.53
2018-07-24T09:35:18.562Z,10.53
2018-07-24T09:37:46.847Z,14.17
2018-07-24T09:40:15.098Z,10.10
2018-07-24T09:42:43.369Z,11.20
2018-07-24T09:45:11.606Z,12.23
2018-07-24T09:47:39.868Z,13.60
2018-07-24T09:50:08.156Z,16.10
2018-07-24T09:52:36.457Z,12.27
2018-07-24T09:55:05.042Z,11.80
2018-07-24T09:57:33.277Z,11.73
2018-07-24T10:00:01.537Z,13.50
2018-07-24T10:02:29.809Z,11.93
2018-07-24T10:04:58.040Z,10.03
2018-07-24T10:07:26.309Z,6.47
2018-07-24T10:09:54.641Z,8.20
2018-07-24T10:12:22.893Z,9.13
2018-07-24T10:14:51.152Z,7.00
2018-07-24T10:17:19.394Z,8.77
2018-07-24T10:19:47.654Z,8.47
2018-07-24T10:22:15.918Z,12.73
2018-07-24T10:24:44.172Z,10.97
2018-07-24T10:27:12.489Z,10.47
2018-07-24T10:29:40.735Z,11.13
2018-07-24T10:32:09.036Z,11.57
2018-07-24T10:34:37.264Z,9.43
2018-07-24T10:37:06.152Z,8.07
2018-07-24T10:39:34.401Z,7.63
2018-07-24T10:42:02.655Z,6.07
2018-07-24T10:44:30.901Z,7.87
2018-07-24T10:46:59.138Z,6.50
2018-07-24T10:49:27.394Z,7.47
2018-07-24T10:51:55.665Z,5.62
2018-07-24T10:54:23.902Z,4.17
2018-07-24T10:56:52.162Z,15.68
2018-07-24T10:59:20.409Z,5.95
2018-07-24T11:01:48.676Z,28.35
2018-07-24T11:04:16.921Z,35.05
2018-07-24T11:06:45.163Z,7.95
2018-07-24T11:09:13.468Z,7.42
2018-07-24T11:11:41.716Z,5.47
2018-07-24T11:14:09.981Z,5.37
2018-07-24T11:16:38.254Z,7.22
2018-07-24T11:19:06.529Z,4.95
2018-07-24T11:21:34.797Z,17.20
2018-07-24T11:24:03.052Z,18.92
2018-07-24T11:26:31.786Z,19.32
2018-07-24T11:29:00.049Z,5.75
2018-07-24T11:31:28.420Z,3.40
2018-07-24T11:33:56.655Z,5.75
2018-07-24T11:36:24.941Z,4.15
2018-07-24T11:38:53.209Z,5.55
2018-07-24T11:41:21.450Z,3.90
2018-07-24T11:43:49.722Z,11.55
2018-07-24T11:46:17.992Z,6.33
2018-07-24T11:48:46.278Z,22.30
2018-07-24T11:51:14.537Z,7.95
2018-07-24T11:53:42.814Z,7.85
2018-07-24T11:56:11.079Z,5.05
2018-07-24T11:58:39.358Z,4.00
2018-07-24T12:01:07.593Z,5.78
2018-07-24T12:03:35.909Z,6.95
2018-07-24T12:06:04.135Z,10.32
2018-07-24T12:08:32.368Z,5.05
2018-07-24T12:11:00.617Z,4.42
2018-07-24T12:13:28.866Z,5.60
2018-07-24T12:15:57.122Z,3.65
2018-07-24T12:18:25.388Z,6.22
2018-07-24T12:20:53.732Z,4.08
2018-07-24T12:23:22.000Z,3.47
2018-07-24T12:25:50.252Z,4.75
2018-07-24T12:28:18.513Z,6.03
2018-07-24T12:30:46.777Z,7.25
2018-07-24T12:33:15.025Z,12.23
2018-07-24T12:35:43.357Z,2.42
2018-07-24T12:38:11.593Z,6.35
2018-07-24T12:40:39.900Z,3.02
2018-07-24T12:43:08.580Z,2.65
2018-07-24T12:45:36.820Z,4.53
2018-07-24T12:48:05.153Z,3.77
2018-07-24T12:50:33.429Z,4.35
2018-07-24T12:53:01.745Z,4.65
2018-07-24T12:55:30.033Z,4.22
2018-07-24T12:57:58.357Z,19.07
2018-07-24T13:00:26.627Z,8.25
2018-07-24T13:02:54.881Z,6.35
2018-07-24T13:05:23.165Z,2.42
2018-07-24T13:07:51.401Z,3.17
2018-07-24T13:10:19.717Z,4.72
2018-07-24T13:12:48.010Z,5.95
2018-07-24T13:15:16.268Z,4.90
2018-07-24T13:17:44.529Z,16.40
2018-07-24T13:20:12.843Z,7.85
2018-07-24T13:22:41.088Z,8.05
2018-07-24T13:25:09.349Z,8.03
2018-07-24T13:27:37.619Z,11.83
2018-07-24T13:30:05.931Z,37.50
2018-07-24T13:32:34.390Z,62.15
2018-07-24T13:35:02.661Z,29.65
2018-07-24T13:37:30.960Z,7.53
2018-07-24T13:39:59.187Z,4.92
2018-07-24T13:42:27.501Z,8.05
2018-07-24T13:46:25.081Z,4.53
2018-07-24T13:48:53.363Z,4.75
2018-07-24T13:51:21.632Z,6.58
2018-07-24T13:53:49.999Z,6.58
2018-07-24T13:56:18.436Z,21.75
2018-07-24T13:58:46.738Z,16.23
2018-07-24T14:01:15.000Z,4.05
2018-07-24T14:03:43.275Z,3.45
2018-07-24T14:06:11.550Z,6.90
2018-07-24T14:08:39.853Z,3.05
2018-07-24T14:11:08.214Z,4.95
2018-07-24T14:13:36.505Z,10.23
2018-07-24T14:16:04.786Z,5.37
2018-07-24T14:18:33.066Z,6.05
2018-07-24T14:21:01.334Z,2.95
2018-07-24T14:23:29.596Z,19.05
2018-07-24T14:25:57.890Z,29.32
2018-07-24T14:28:26.177Z,17.95
2018-07-24T14:30:54.478Z,3.83
2018-07-24T14:33:22.752Z,6.97
2018-07-24T14:35:51.010Z,7.53
2018-07-24T14:38:19.267Z,6.78
2018-07-24T14:40:47.543Z,7.58
2018-07-24T14:43:15.827Z,9.75
2018-07-24T14:45:44.147Z,7.20
2018-07-24T14:48:12.468Z,12.28
2018-07-24T14:50:40.748Z,19.12
2018-07-24T14:53:09.029Z,5.58
2018-07-24T14:55:37.330Z,20.70
2018-07-24T14:58:05.658Z,11.65
2018-07-24T15:00:33.902Z,8.63
2018-07-24T15:03:02.179Z,3.70
2018-07-24T15:05:30.445Z,4.62
2018-07-24T15:07:58.720Z,3.98
2018-07-24T15:10:27.058Z,4.17
2018-07-24T15:12:55.338Z,3.12
2018-07-24T15:15:23.598Z,45.20
2018-07-24T15:17:51.922Z,51.23
2018-07-24T15:20:20.196Z,7.28
2018-07-24T15:22:48.503Z,6.97
2018-07-24T15:25:16.787Z,4.37
2018-07-24T15:27:45.042Z,5.15
2018-07-24T15:30:13.320Z,3.95
2018-07-24T15:32:41.573Z,5.08
2018-07-24T15:35:09.901Z,5.35
2018-07-24T15:37:38.182Z,3.35
2018-07-24T15:40:06.809Z,9.98
2018-07-24T15:42:35.084Z,4.85
2018-07-24T15:45:03.391Z,8.78
2018-07-24T15:47:31.667Z,5.72
2018-07-24T15:49:59.905Z,11.73
2018-07-24T15:52:28.182Z,47.33
2018-07-24T15:54:56.491Z,11.22
2018-07-24T15:57:24.762Z,5.23
2018-07-24T15:59:53.044Z,27.90
2018-07-24T16:02:21.393Z,55.03
2018-07-24T16:04:49.641Z,10.93
2018-07-24T16:07:17.926Z,10.40
2018-07-24T16:09:46.207Z,20.70
2018-07-24T16:12:14.493Z,10.32
2018-07-24T16:14:42.771Z,12.43
2018-07-24T16:17:11.059Z,7.60
2018-07-24T16:19:39.330Z,8.27
2018-07-24T16:22:07.711Z,3.37
2018-07-24T16:24:35.984Z,5.85
2018-07-24T16:27:04.256Z,5.37
2018-07-24T16:29:32.516Z,4.10
2018-07-24T16:32:00.744Z,4.27
2018-07-24T16:34:28.989Z,6.30
2018-07-24T16:36:57.232Z,3.20
2018-07-24T16:39:25.459Z,6.73
2018-07-24T16:41:53.718Z,5.27
2018-07-24T16:44:21.938Z,4.13
2018-07-24T16:46:50.198Z,3.90
2018-07-24T16:49:18.425Z,4.67
2018-07-24T16:51:46.665Z,5.93
2018-07-24T16:54:14.882Z,5.97
2018-07-24T16:56:43.130Z,4.77
2018-07-24T16:59:11.743Z,4.83
2018-07-24T17:01:39.972Z,7.93
2018-07-24T17:04:08.213Z,4.83
2018-07-24T17:06:36.453Z,5.53
2018-07-24T17:09:06.684Z,5.00
2018-07-24T17:11:34.930Z,6.20
2018-07-24T17:14:03.315Z,4.23
2018-07-24T17:16:31.473Z,5.37
2018-07-24T17:18:59.687Z,10.03
2018-07-24T17:21:27.973Z,6.20
2018-07-24T17:23:56.197Z,6.23
2018-07-24T17:26:24.498Z,5.97
2018-07-24T17:28:52.698Z,4.43
2018-07-24T17:31:20.992Z,4.67
2018-07-24T17:33:49.268Z,5.77
2018-07-24T17:36:17.530Z,6.67
2018-07-24T17:38:45.789Z,5.70
2018-07-24T17:41:13.991Z,7.57
2018-07-24T17:43:42.203Z,8.83
2018-07-24T17:46:10.461Z,8.60
2018-07-24T17:48:38.659Z,9.73
2018-07-24T17:51:06.868Z,9.83
2018-07-24T17:53:35.128Z,4.50
2018-07-24T17:56:03.328Z,4.37
2018-07-24T17:58:31.559Z,3.37
2018-07-24T18:00:59.785Z,8.80
2018-07-24T18:03:27.993Z,4.87
2018-07-24T18:05:56.239Z,5.00
2018-07-24T18:08:24.454Z,9.37
2018-07-24T18:10:52.664Z,9.00
2018-07-24T18:13:20.904Z,9.37
2018-07-24T18:15:49.185Z,7.67
2018-07-24T18:18:17.399Z,13.07
2018-07-24T18:20:45.608Z,4.43
2018-07-24T18:23:13.803Z,9.70
2018-07-24T18:25:42.041Z,7.97
2018-07-24T18:28:10.253Z,6.93
2018-07-24T18:30:38.486Z,7.97
2018-07-24T18:33:06.700Z,9.93
2018-07-24T18:35:34.899Z,6.73
2018-07-24T18:38:03.103Z,6.60
2018-07-24T18:40:31.351Z,7.83
2018-07-24T18:42:59.593Z,7.77
2018-07-24T18:45:27.867Z,8.70
2018-07-24T18:47:56.310Z,13.33
2018-07-24T18:50:24.804Z,7.43
2018-07-24T18:52:53.064Z,11.80
2018-07-24T18:55:21.300Z,9.17
2018-07-24T18:57:49.499Z,16.87
2018-07-24T19:00:17.712Z,18.87
2018-07-24T19:02:45.955Z,14.33
2018-07-24T19:05:14.184Z,12.57
2018-07-24T19:07:42.402Z,13.43
2018-07-24T19:10:10.596Z,12.13
2018-07-24T19:12:38.865Z,11.47
2018-07-24T19:15:07.352Z,14.57
2018-07-24T19:17:35.585Z,17.50
2018-07-24T19:20:04.007Z,14.73
2018-07-24T19:22:32.207Z,17.70
2018-07-24T19:25:00.443Z,15.43
2018-07-24T19:27:28.647Z,15.03
2018-07-24T19:29:56.860Z,16.83
2018-07-24T19:32:25.119Z,14.00
2018-07-24T19:34:53.458Z,12.80
2018-07-24T19:37:21.799Z,13.03
2018-07-24T19:39:50.758Z,14.60
2018-07-24T19:42:18.988Z,16.83
2018-07-24T19:44:47.273Z,9.70
2018-07-24T19:47:15.488Z,9.97
2018-07-24T19:49:43.748Z,12.80
2018-07-24T19:52:12.035Z,20.13
2018-07-24T19:54:41.050Z,13.77
2018-07-24T19:57:09.259Z,15.80
2018-07-24T19:59:37.517Z,11.97
2018-07-24T20:02:05.727Z,13.47
2018-07-24T20:04:33.932Z,13.17
2018-07-24T20:07:02.723Z,16.13
2018-07-24T20:09:30.916Z,13.70
2018-07-24T20:11:59.115Z,15.57
2018-07-24T20:14:27.311Z,12.83
2018-07-24T20:16:55.642Z,14.73
2018-07-24T20:19:23.886Z,12.03
2018-07-24T20:21:52.140Z,14.47
2018-07-24T20:24:20.363Z,14.57
2018-07-24T20:26:48.571Z,21.30
2018-07-24T20:29:16.768Z,16.73
2018-07-24T20:31:44.971Z,11.13
2018-07-24T20:34:13.222Z,12.60
2018-07-24T20:36:41.403Z,11.67
2018-07-24T20:39:10.972Z,14.90
2018-07-24T20:41:39.352Z,15.00
2018-07-24T20:44:07.664Z,11.33
2018-07-24T20:46:35.930Z,9.10
2018-07-24T20:49:04.481Z,8.87
2018-07-24T20:51:39.172Z,8.53
2018-07-24T20:54:07.491Z,10.90
2018-07-24T20:56:35.788Z,11.53
2018-07-24T20:59:03.927Z,10.40
2018-07-24T21:01:32.136Z,11.27
2018-07-24T21:04:00.356Z,15.17
2018-07-24T21:06:28.693Z,14.93
2018-07-24T21:08:57.271Z,13.97
2018-07-24T21:11:25.480Z,14.07
2018-07-24T21:13:53.731Z,17.63
2018-07-24T21:16:21.935Z,19.00
2018-07-24T21:18:50.399Z,19.77
2018-07-24T21:21:18.595Z,17.30
2018-07-24T21:23:46.802Z,15.23
2018-07-24T21:26:15.081Z,17.87
2018-07-24T21:28:43.287Z,17.23
2018-07-24T21:31:11.499Z,16.30
2018-07-24T21:33:39.935Z,23.17
2018-07-24T21:36:08.142Z,13.90
2018-07-24T21:38:36.359Z,14.50
2018-07-24T21:41:04.564Z,15.10
2018-07-24T21:43:32.768Z,15.60
2018-07-24T21:46:00.980Z,21.17
2018-07-24T21:48:29.183Z,18.13
2018-07-24T21:50:57.471Z,19.27
2018-07-24T21:53:26.523Z,18.00
2018-07-24T21:55:54.784Z,21.37
2018-07-24T21:58:23.465Z,14.97
2018-07-24T22:00:57.202Z,21.87
2018-07-24T22:03:25.455Z,18.20
2018-07-24T22:05:53.653Z,16.90
2018-07-24T22:08:21.848Z,16.90
2018-07-24T22:10:50.052Z,14.17
2018-07-24T22:15:41.416Z,14.43
2018-07-24T22:18:09.666Z,20.83
2018-07-24T22:20:37.855Z,15.17
2018-07-24T22:23:06.159Z,16.50
2018-07-24T22:25:34.440Z,16.13
2018-07-24T22:28:02.631Z,15.67
2018-07-24T22:30:30.859Z,13.90
2018-07-24T22:32:59.059Z,18.57
2018-07-24T22:35:27.259Z,16.00
2018-07-24T22:37:55.495Z,16.20
2018-07-24T22:40:23.703Z,11.83
2018-07-24T22:42:51.899Z,13.27
2018-07-24T22:45:20.175Z,16.00
2018-07-24T22:47:49.628Z,16.57
2018-07-24T22:50:30.803Z,10.63
2018-07-24T22:52:59.102Z,10.73
2018-07-24T22:55:27.471Z,11.83
2018-07-24T22:57:55.787Z,11.53
2018-07-24T23:00:24.107Z,12.57
2018-07-24T23:02:52.376Z,11.33
2018-07-24T23:05:20.689Z,10.17
2018-07-24T23:07:48.966Z,11.23
2018-07-24T23:10:17.275Z,8.30
2018-07-24T23:12:45.544Z,10.33
2018-07-24T23:15:13.790Z,9.47
2018-07-24T23:17:42.061Z,13.97
2018-07-24T23:20:10.320Z,11.37
2018-07-24T23:22:38.600Z,12.17
2018-07-24T23:25:06.839Z,12.97
2018-07-24T23:27:35.936Z,10.60
2018-07-24T23:30:04.292Z,15.70
2018-07-24T23:32:33.155Z,11.37
2018-07-24T23:35:01.508Z,15.50
2018-07-24T23:37:29.814Z,12.83
2018-07-24T23:39:58.081Z,12.33
2018-07-24T23:42:26.371Z,12.30
2018-07-24T23:44:54.593Z,11.27
2018-07-24T23:47:22.887Z,12.20
2018-07-24T23:49:51.137Z,11.40
2018-07-24T23:52:19.435Z,12.77
2018-07-24T23:54:47.716Z,15.00
2018-07-24T23:57:15.975Z,11.20
2018-07-24T23:59:44.387Z,11.07
